sensor_id;sensor_type;location;lat;lon;timestamp;P1;durP1;ratioP1;P2;durP2;ratioP2
17197;SDS011;8715;51.010;6.812;2023-04-21T00:01:24;883.53;;;824.03;;
17197;SDS011;8715;51.010;6.812;2023-04-21T00:03:50;895.50;;;835.38;;
17197;SDS011;8715;51.010;6.812;2023-04-21T00:06:15;887.03;;;826.77;;
17197;SDS011;8715;51.010;6.812;2023-04-21T00:08:46;877.55;;;818.88;;
17197;SDS011;8715;51.010;6.812;2023-04-21T00:11:11;881.10;;;821.23;;
17197;SDS011;8715;51.010;6.812;2023-04-21T00:13:39;895.40;;;834.95;;
17197;SDS011;8715;51.010;6.812;2023-04-21T00:16:04;879.90;;;820.30;;
17197;SDS011;8715;51.010;6.812;2023-04-21T00:18:29;892.33;;;831.95;;
17197;SDS011;8715;51.010;6.812;2023-04-21T00:20:55;879.38;;;820.25;;
17197;SDS011;8715;51.010;6.812;2023-04-21T00:23:20;877.83;;;818.33;;
17197;SDS011;8715;51.010;6.812;2023-04-21T00:25:46;879.00;;;820.03;;
17197;SDS011;8715;51.010;6.812;2023-04-21T00:28:11;891.53;;;831.27;;
17197;SDS011;8715;51.010;6.812;2023-04-21T00:30:36;885.40;;;825.00;;
17197;SDS011;8715;51.010;6.812;2023-04-21T00:33:01;883.37;;;823.57;;
17197;SDS011;8715;51.010;6.812;2023-04-21T00:35:26;881.77;;;822.20;;
17197;SDS011;8715;51.010;6.812;2023-04-21T00:37:52;890.83;;;831.00;;
17197;SDS011;8715;51.010;6.812;2023-04-21T00:40:17;880.17;;;820.47;;
17197;SDS011;8715;51.010;6.812;2023-04-21T00:42:42;886.55;;;826.10;;
17197;SDS011;8715;51.010;6.812;2023-04-21T00:45:07;884.57;;;824.10;;
17197;SDS011;8715;51.010;6.812;2023-04-21T00:47:33;902.37;;;841.50;;
17197;SDS011;8715;51.010;6.812;2023-04-21T00:49:58;889.93;;;829.23;;
17197;SDS011;8715;51.010;6.812;2023-04-21T00:52:23;880.60;;;820.60;;
17197;SDS011;8715;51.010;6.812;2023-04-21T00:54:49;898.92;;;837.60;;
17197;SDS011;8715;51.010;6.812;2023-04-21T00:57:14;889.50;;;828.90;;
17197;SDS011;8715;51.010;6.812;2023-04-21T00:59:40;887.95;;;827.28;;
17197;SDS011;8715;51.010;6.812;2023-04-21T01:02:05;891.30;;;830.15;;
17197;SDS011;8715;51.010;6.812;2023-04-21T01:04:31;885.03;;;824.37;;
17197;SDS011;8715;51.010;6.812;2023-04-21T01:09:26;875.65;;;816.58;;
17197;SDS011;8715;51.010;6.812;2023-04-21T01:12:04;881.25;;;822.08;;
17197;SDS011;8715;51.010;6.812;2023-04-21T01:14:30;879.05;;;819.80;;
17197;SDS011;8715;51.010;6.812;2023-04-21T01:16:55;884.60;;;824.20;;
17197;SDS011;8715;51.010;6.812;2023-04-21T01:19:21;887.28;;;827.00;;
17197;SDS011;8715;51.010;6.812;2023-04-21T01:21:46;895.10;;;834.83;;
17197;SDS011;8715;51.010;6.812;2023-04-21T01:24:13;896.83;;;835.88;;
17197;SDS011;8715;51.010;6.812;2023-04-21T01:26:38;897.57;;;836.23;;
17197;SDS011;8715;51.010;6.812;2023-04-21T01:29:03;884.37;;;823.77;;
17197;SDS011;8715;51.010;6.812;2023-04-21T01:31:28;884.10;;;823.20;;
17197;SDS011;8715;51.010;6.812;2023-04-21T01:33:53;885.67;;;824.53;;
17197;SDS011;8715;51.010;6.812;2023-04-21T01:36:19;882.73;;;822.17;;
17197;SDS011;8715;51.010;6.812;2023-04-21T01:38:44;881.92;;;821.88;;
17197;SDS011;8715;51.010;6.812;2023-04-21T01:41:09;885.93;;;825.97;;
17197;SDS011;8715;51.010;6.812;2023-04-21T01:43:35;884.53;;;823.33;;
17197;SDS011;8715;51.010;6.812;2023-04-21T01:46:01;883.20;;;822.97;;
17197;SDS011;8715;51.010;6.812;2023-04-21T01:48:26;881.77;;;821.20;;
17197;SDS011;8715;51.010;6.812;2023-04-21T01:50:51;884.40;;;823.60;;
17197;SDS011;8715;51.010;6.812;2023-04-21T01:53:16;886.20;;;826.10;;
17197;SDS011;8715;51.010;6.812;2023-04-21T01:55:41;897.13;;;836.23;;
17197;SDS011;8715;51.010;6.812;2023-04-21T01:58:07;900.90;;;839.57;;
17197;SDS011;8715;51.010;6.812;2023-04-21T02:00:32;898.43;;;837.57;;
17197;SDS011;8715;51.010;6.812;2023-04-21T02:02:57;880.97;;;821.10;;
17197;SDS011;8715;51.010;6.812;2023-04-21T02:05:22;886.63;;;826.40;;
17197;SDS011;8715;51.010;6.812;2023-04-21T02:07:47;881.03;;;821.30;;
17197;SDS011;8715;51.010;6.812;2023-04-21T02:10:13;884.17;;;823.57;;
17197;SDS011;8715;51.010;6.812;2023-04-21T02:12:38;899.27;;;837.97;;
17197;SDS011;8715;51.010;6.812;2023-04-21T02:15:04;882.63;;;821.53;;
17197;SDS011;8715;51.010;6.812;2023-04-21T02:17:29;886.20;;;825.10;;
17197;SDS011;8715;51.010;6.812;2023-04-21T02:19:55;886.67;;;826.05;;
17197;SDS011;8715;51.010;6.812;2023-04-21T02:22:20;884.17;;;823.27;;
17197;SDS011;8715;51.010;6.812;2023-04-21T02:24:47;883.30;;;822.80;;
17197;SDS011;8715;51.010;6.812;2023-04-21T02:27:12;886.23;;;825.60;;
17197;SDS011;8715;51.010;6.812;2023-04-21T02:29:37;880.60;;;820.87;;
17197;SDS011;8715;51.010;6.812;2023-04-21T02:32:02;876.77;;;816.80;;
17197;SDS011;8715;51.010;6.812;2023-04-21T02:34:27;880.73;;;821.37;;
17197;SDS011;8715;51.010;6.812;2023-04-21T02:36:52;880.43;;;820.97;;
17197;SDS011;8715;51.010;6.812;2023-04-21T02:39:18;881.78;;;822.17;;
17197;SDS011;8715;51.010;6.812;2023-04-21T02:41:43;877.80;;;818.07;;
17197;SDS011;8715;51.010;6.812;2023-04-21T02:44:08;881.73;;;821.90;;
17197;SDS011;8715;51.010;6.812;2023-04-21T02:46:34;880.63;;;821.30;;
17197;SDS011;8715;51.010;6.812;2023-04-21T02:48:59;876.17;;;817.13;;
17197;SDS011;8715;51.010;6.812;2023-04-21T02:51:24;878.97;;;819.17;;
17197;SDS011;8715;51.010;6.812;2023-04-21T02:53:49;880.47;;;821.20;;
17197;SDS011;8715;51.010;6.812;2023-04-21T02:56:15;895.90;;;836.00;;
17197;SDS011;8715;51.010;6.812;2023-04-21T02:58:40;874.57;;;816.20;;
17197;SDS011;8715;51.010;6.812;2023-04-21T03:01:05;879.33;;;820.77;;
17197;SDS011;8715;51.010;6.812;2023-04-21T03:03:31;878.47;;;819.90;;
17197;SDS011;8715;51.010;6.812;2023-04-21T03:05:57;876.65;;;817.08;;
17197;SDS011;8715;51.010;6.812;2023-04-21T03:08:22;878.75;;;819.65;;
17197;SDS011;8715;51.010;6.812;2023-04-21T03:10:47;874.90;;;816.53;;
17197;SDS011;8715;51.010;6.812;2023-04-21T03:13:12;877.17;;;818.63;;
17197;SDS011;8715;51.010;6.812;2023-04-21T03:15:38;871.95;;;813.30;;
17197;SDS011;8715;51.010;6.812;2023-04-21T03:18:03;866.20;;;808.87;;
17197;SDS011;8715;51.010;6.812;2023-04-21T03:20:28;871.83;;;813.43;;
17197;SDS011;8715;51.010;6.812;2023-04-21T03:22:54;872.97;;;815.35;;
17197;SDS011;8715;51.010;6.812;2023-04-21T03:25:19;887.10;;;828.78;;
17197;SDS011;8715;51.010;6.812;2023-04-21T03:27:44;868.07;;;811.13;;
17197;SDS011;8715;51.010;6.812;2023-04-21T03:30:10;876.03;;;818.10;;
17197;SDS011;8715;51.010;6.812;2023-04-21T03:32:35;868.30;;;811.13;;
17197;SDS011;8715;51.010;6.812;2023-04-21T03:35:00;865.50;;;809.50;;
17197;SDS011;8715;51.010;6.812;2023-04-21T03:37:25;868.27;;;811.97;;
17197;SDS011;8715;51.010;6.812;2023-04-21T03:39:50;889.00;;;808.73;;
17197;SDS011;8715;51.010;6.812;2023-04-21T03:42:16;869.23;;;805.97;;
17197;SDS011;8715;51.010;6.812;2023-04-21T03:44:41;860.83;;;803.47;;
17197;SDS011;8715;51.010;6.812;2023-04-21T03:47:06;876.33;;;819.73;;
17197;SDS011;8715;51.010;6.812;2023-04-21T03:49:34;863.17;;;806.73;;
17197;SDS011;8715;51.010;6.812;2023-04-21T03:51:59;868.97;;;807.22;;
17197;SDS011;8715;51.010;6.812;2023-04-21T03:54:24;855.73;;;801.03;;
17197;SDS011;8715;51.010;6.812;2023-04-21T03:56:50;861.87;;;805.93;;
17197;SDS011;8715;51.010;6.812;2023-04-21T03:59:15;883.17;;;822.53;;
17197;SDS011;8715;51.010;6.812;2023-04-21T04:01:40;858.53;;;801.63;;
17197;SDS011;8715;51.010;6.812;2023-04-21T04:04:06;872.75;;;815.47;;
17197;SDS011;8715;51.010;6.812;2023-04-21T04:06:31;859.33;;;803.50;;
17197;SDS011;8715;51.010;6.812;2023-04-21T04:08:57;859.60;;;803.42;;
17197;SDS011;8715;51.010;6.812;2023-04-21T04:11:22;860.13;;;804.43;;
17197;SDS011;8715;51.010;6.812;2023-04-21T04:13:47;858.40;;;803.57;;
17197;SDS011;8715;51.010;6.812;2023-04-21T04:16:12;860.13;;;804.80;;
17197;SDS011;8715;51.010;6.812;2023-04-21T04:18:37;874.43;;;817.53;;
17197;SDS011;8715;51.010;6.812;2023-04-21T04:21:06;865.70;;;809.53;;
17197;SDS011;8715;51.010;6.812;2023-04-21T04:23:31;873.08;;;817.35;;
17197;SDS011;8715;51.010;6.812;2023-04-21T04:25:57;878.28;;;822.40;;
17197;SDS011;8715;51.010;6.812;2023-04-21T04:28:22;855.23;;;801.80;;
17197;SDS011;8715;51.010;6.812;2023-04-21T04:30:47;854.27;;;800.60;;
17197;SDS011;8715;51.010;6.812;2023-04-21T04:33:12;851.13;;;798.07;;
17197;SDS011;8715;51.010;6.812;2023-04-21T04:35:38;853.23;;;799.97;;
17197;SDS011;8715;51.010;6.812;2023-04-21T04:38:03;853.27;;;800.23;;
17197;SDS011;8715;51.010;6.812;2023-04-21T04:40:28;853.80;;;800.73;;
17197;SDS011;8715;51.010;6.812;2023-04-21T04:42:54;870.00;;;815.80;;
17197;SDS011;8715;51.010;6.812;2023-04-21T04:45:19;853.33;;;800.60;;
17197;SDS011;8715;51.010;6.812;2023-04-21T04:47:46;868.78;;;815.38;;
17197;SDS011;8715;51.010;6.812;2023-04-21T04:50:11;854.72;;;801.88;;
17197;SDS011;8715;51.010;6.812;2023-04-21T04:52:36;847.90;;;795.50;;
17197;SDS011;8715;51.010;6.812;2023-04-21T04:55:01;851.60;;;799.03;;
17197;SDS011;8715;51.010;6.812;2023-04-21T04:57:29;870.63;;;815.17;;
17197;SDS011;8715;51.010;6.812;2023-04-21T04:59:54;849.60;;;791.85;;
17197;SDS011;8715;51.010;6.812;2023-04-21T05:02:20;851.92;;;793.10;;
17197;SDS011;8715;51.010;6.812;2023-04-21T05:04:46;845.40;;;790.75;;
17197;SDS011;8715;51.010;6.812;2023-04-21T05:07:11;867.67;;;812.63;;
17197;SDS011;8715;51.010;6.812;2023-04-21T05:09:36;856.30;;;801.60;;
17197;SDS011;8715;51.010;6.812;2023-04-21T05:12:02;856.53;;;801.80;;
17197;SDS011;8715;51.010;6.812;2023-04-21T05:14:27;857.53;;;803.33;;
17197;SDS011;8715;51.010;6.812;2023-04-21T05:16:52;862.10;;;806.83;;
17197;SDS011;8715;51.010;6.812;2023-04-21T05:19:17;874.40;;;818.47;;
17197;SDS011;8715;51.010;6.812;2023-04-21T05:21:43;858.97;;;803.13;;
17197;SDS011;8715;51.010;6.812;2023-04-21T05:24:08;865.63;;;808.63;;
17197;SDS011;8715;51.010;6.812;2023-04-21T05:26:33;863.00;;;806.07;;
17197;SDS011;8715;51.010;6.812;2023-04-21T05:28:58;867.53;;;810.37;;
17197;SDS011;8715;51.010;6.812;2023-04-21T05:31:23;874.70;;;817.17;;
17197;SDS011;8715;51.010;6.812;2023-04-21T05:33:49;873.22;;;814.25;;
17197;SDS011;8715;51.010;6.812;2023-04-21T05:36:14;880.17;;;820.97;;
17197;SDS011;8715;51.010;6.812;2023-04-21T05:38:39;894.88;;;834.78;;
17197;SDS011;8715;51.010;6.812;2023-04-21T05:41:05;889.37;;;827.90;;
17197;SDS011;8715;51.010;6.812;2023-04-21T05:43:30;893.63;;;831.37;;
17197;SDS011;8715;51.010;6.812;2023-04-21T05:46:01;904.78;;;841.22;;
17197;SDS011;8715;51.010;6.812;2023-04-21T05:48:27;906.33;;;841.92;;
17197;SDS011;8715;51.010;6.812;2023-04-21T05:50:52;925.42;;;859.70;;
17197;SDS011;8715;51.010;6.812;2023-04-21T05:53:18;919.45;;;854.10;;
17197;SDS011;8715;51.010;6.812;2023-04-21T05:55:43;909.17;;;844.30;;
17197;SDS011;8715;51.010;6.812;2023-04-21T05:58:08;903.97;;;839.13;;
17197;SDS011;8715;51.010;6.812;2023-04-21T06:00:34;906.63;;;841.57;;
17197;SDS011;8715;51.010;6.812;2023-04-21T06:02:59;901.33;;;836.60;;
17197;SDS011;8715;51.010;6.812;2023-04-21T06:05:24;905.80;;;841.87;;
17197;SDS011;8715;51.010;6.812;2023-04-21T06:07:50;898.43;;;835.07;;
17197;SDS011;8715;51.010;6.812;2023-04-21T06:10:16;899.80;;;836.60;;
17197;SDS011;8715;51.010;6.812;2023-04-21T06:12:41;895.53;;;832.75;;
17197;SDS011;8715;51.010;6.812;2023-04-21T06:15:06;896.10;;;834.07;;
17197;SDS011;8715;51.010;6.812;2023-04-21T06:17:32;912.33;;;848.88;;
17197;SDS011;8715;51.010;6.812;2023-04-21T06:19:57;891.83;;;830.77;;
17197;SDS011;8715;51.010;6.812;2023-04-21T06:22:22;892.30;;;830.23;;
17197;SDS011;8715;51.010;6.812;2023-04-21T06:24:48;897.90;;;834.72;;
17197;SDS011;8715;51.010;6.812;2023-04-21T06:27:13;913.53;;;848.50;;
17197;SDS011;8715;51.010;6.812;2023-04-21T06:29:39;906.75;;;842.45;;
17197;SDS011;8715;51.010;6.812;2023-04-21T06:32:04;906.65;;;842.03;;
17197;SDS011;8715;51.010;6.812;2023-04-21T06:34:29;906.27;;;841.80;;
17197;SDS011;8715;51.010;6.812;2023-04-21T06:36:55;907.90;;;842.80;;
17197;SDS011;8715;51.010;6.812;2023-04-21T06:39:20;906.80;;;841.00;;
17197;SDS011;8715;51.010;6.812;2023-04-21T06:41:45;914.20;;;847.63;;
17197;SDS011;8715;51.010;6.812;2023-04-21T06:44:10;915.30;;;847.90;;
17197;SDS011;8715;51.010;6.812;2023-04-21T06:46:39;914.20;;;847.15;;
17197;SDS011;8715;51.010;6.812;2023-04-21T06:49:04;926.00;;;856.60;;
17197;SDS011;8715;51.010;6.812;2023-04-21T06:51:30;922.83;;;853.23;;
17197;SDS011;8715;51.010;6.812;2023-04-21T06:53:56;921.05;;;852.67;;
17197;SDS011;8715;51.010;6.812;2023-04-21T06:56:21;921.10;;;852.53;;
17197;SDS011;8715;51.010;6.812;2023-04-21T06:58:46;922.30;;;853.87;;
17197;SDS011;8715;51.010;6.812;2023-04-21T07:01:11;929.60;;;859.73;;
17197;SDS011;8715;51.010;6.812;2023-04-21T07:03:36;932.33;;;861.67;;
17197;SDS011;8715;51.010;6.812;2023-04-21T07:06:02;931.70;;;860.80;;
17197;SDS011;8715;51.010;6.812;2023-04-21T07:08:27;933.80;;;862.23;;
17197;SDS011;8715;51.010;6.812;2023-04-21T07:10:52;927.13;;;856.23;;
17197;SDS011;8715;51.010;6.812;2023-04-21T07:13:17;941.67;;;870.13;;
17197;SDS011;8715;51.010;6.812;2023-04-21T07:15:43;926.00;;;855.87;;
17197;SDS011;8715;51.010;6.812;2023-04-21T07:18:08;944.10;;;872.30;;
17197;SDS011;8715;51.010;6.812;2023-04-21T07:20:33;924.53;;;853.73;;
17197;SDS011;8715;51.010;6.812;2023-04-21T07:22:58;939.40;;;868.80;;
17197;SDS011;8715;51.010;6.812;2023-04-21T07:25:24;925.13;;;854.33;;
17197;SDS011;8715;51.010;6.812;2023-04-21T07:27:49;933.10;;;861.65;;
17197;SDS011;8715;51.010;6.812;2023-04-21T07:30:15;929.20;;;857.67;;
17197;SDS011;8715;51.010;6.812;2023-04-21T07:32:40;928.10;;;857.73;;
17197;SDS011;8715;51.010;6.812;2023-04-21T07:35:06;931.03;;;859.92;;
17197;SDS011;8715;51.010;6.812;2023-04-21T07:37:31;931.92;;;860.42;;
17197;SDS011;8715;51.010;6.812;2023-04-21T07:39:56;936.70;;;863.47;;
17197;SDS011;8715;51.010;6.812;2023-04-21T07:42:22;949.53;;;875.60;;
17197;SDS011;8715;51.010;6.812;2023-04-21T07:44:47;942.50;;;868.10;;
17197;SDS011;8715;51.010;6.812;2023-04-21T07:47:12;939.03;;;865.28;;
17197;SDS011;8715;51.010;6.812;2023-04-21T07:49:38;934.57;;;861.73;;
17197;SDS011;8715;51.010;6.812;2023-04-21T07:52:03;937.70;;;864.13;;
17197;SDS011;8715;51.010;6.812;2023-04-21T07:54:28;932.07;;;860.27;;
17197;SDS011;8715;51.010;6.812;2023-04-21T07:56:53;931.50;;;859.47;;
17197;SDS011;8715;51.010;6.812;2023-04-21T07:59:19;943.43;;;871.57;;
17197;SDS011;8715;51.010;6.812;2023-04-21T08:01:44;931.83;;;859.97;;
17197;SDS011;8715;51.010;6.812;2023-04-21T08:04:09;936.58;;;863.88;;
17197;SDS011;8715;51.010;6.812;2023-04-21T08:06:35;933.50;;;861.00;;
17197;SDS011;8715;51.010;6.812;2023-04-21T08:09:00;933.83;;;860.83;;
17197;SDS011;8715;51.010;6.812;2023-04-21T08:11:25;932.27;;;860.47;;
17197;SDS011;8715;51.010;6.812;2023-04-21T08:13:52;938.00;;;865.72;;
17197;SDS011;8715;51.010;6.812;2023-04-21T08:16:17;938.40;;;867.37;;
17197;SDS011;8715;51.010;6.812;2023-04-21T08:18:42;924.23;;;854.23;;
17197;SDS011;8715;51.010;6.812;2023-04-21T08:21:08;926.40;;;856.03;;
17197;SDS011;8715;51.010;6.812;2023-04-21T08:23:33;925.53;;;855.13;;
17197;SDS011;8715;51.010;6.812;2023-04-21T08:25:59;927.57;;;857.17;;
17197;SDS011;8715;51.010;6.812;2023-04-21T08:28:24;925.58;;;855.72;;
17197;SDS011;8715;51.010;6.812;2023-04-21T08:30:49;926.47;;;856.25;;
17197;SDS011;8715;51.010;6.812;2023-04-21T08:33:15;933.50;;;863.10;;
17197;SDS011;8715;51.010;6.812;2023-04-21T08:35:40;928.30;;;857.57;;
17197;SDS011;8715;51.010;6.812;2023-04-21T08:38:06;929.28;;;858.05;;
17197;SDS011;8715;51.010;6.812;2023-04-21T08:40:32;936.20;;;864.00;;
17197;SDS011;8715;51.010;6.812;2023-04-21T08:42:58;931.30;;;858.83;;
17197;SDS011;8715;51.010;6.812;2023-04-21T08:45:23;932.77;;;860.43;;
17197;SDS011;8715;51.010;6.812;2023-04-21T08:47:49;937.92;;;864.95;;
17197;SDS011;8715;51.010;6.812;2023-04-21T08:50:14;936.42;;;863.40;;
17197;SDS011;8715;51.010;6.812;2023-04-21T08:52:40;936.63;;;863.30;;
17197;SDS011;8715;51.010;6.812;2023-04-21T08:55:05;934.53;;;861.03;;
17197;SDS011;8715;51.010;6.812;2023-04-21T08:57:31;946.03;;;871.05;;
17197;SDS011;8715;51.010;6.812;2023-04-21T08:59:56;947.55;;;872.38;;
17197;SDS011;8715;51.010;6.812;2023-04-21T09:02:22;943.73;;;868.37;;
17197;SDS011;8715;51.010;6.812;2023-04-21T09:04:48;946.60;;;870.17;;
17197;SDS011;8715;51.010;6.812;2023-04-21T09:07:35;953.50;;;875.83;;
17197;SDS011;8715;51.010;6.812;2023-04-21T09:10:01;962.47;;;884.75;;
17197;SDS011;8715;51.010;6.812;2023-04-21T09:12:27;949.38;;;872.58;;
17197;SDS011;8715;51.010;6.812;2023-04-21T09:14:53;958.17;;;881.22;;
17197;SDS011;8715;51.010;6.812;2023-04-21T09:17:20;951.75;;;874.08;;
17197;SDS011;8715;51.010;6.812;2023-04-21T09:19:46;944.75;;;868.97;;
17197;SDS011;8715;51.010;6.812;2023-04-21T09:22:17;947.87;;;871.33;;
17197;SDS011;8715;51.010;6.812;2023-04-21T09:24:48;942.78;;;867.20;;
17197;SDS011;8715;51.010;6.812;2023-04-21T09:27:14;945.45;;;869.90;;
17197;SDS011;8715;51.010;6.812;2023-04-21T09:29:44;946.67;;;871.35;;
17197;SDS011;8715;51.010;6.812;2023-04-21T09:32:10;939.03;;;864.10;;
17197;SDS011;8715;51.010;6.812;2023-04-21T09:34:36;940.67;;;865.88;;
17197;SDS011;8715;51.010;6.812;2023-04-21T09:37:05;939.38;;;865.17;;
17197;SDS011;8715;51.010;6.812;2023-04-21T09:39:30;937.93;;;863.97;;
17197;SDS011;8715;51.010;6.812;2023-04-21T09:41:56;941.92;;;867.15;;
17197;SDS011;8715;51.010;6.812;2023-04-21T09:44:22;949.70;;;873.72;;
17197;SDS011;8715;51.010;6.812;2023-04-21T09:46:48;944.80;;;869.00;;
17197;SDS011;8715;51.010;6.812;2023-04-21T09:49:15;943.58;;;868.17;;
17197;SDS011;8715;51.010;6.812;2023-04-21T09:51:41;948.83;;;872.83;;
17197;SDS011;8715;51.010;6.812;2023-04-21T09:54:16;954.80;;;877.28;;
17197;SDS011;8715;51.010;6.812;2023-04-21T09:56:41;954.92;;;876.65;;
17197;SDS011;8715;51.010;6.812;2023-04-21T09:59:07;960.15;;;882.40;;
17197;SDS011;8715;51.010;6.812;2023-04-21T10:01:35;953.97;;;875.42;;
17197;SDS011;8715;51.010;6.812;2023-04-21T10:04:02;950.85;;;872.88;;
17197;SDS011;8715;51.010;6.812;2023-04-21T10:06:28;948.80;;;871.13;;
17197;SDS011;8715;51.010;6.812;2023-04-21T10:08:53;948.83;;;871.63;;
17197;SDS011;8715;51.010;6.812;2023-04-21T10:11:20;950.92;;;873.45;;
17197;SDS011;8715;51.010;6.812;2023-04-21T10:13:45;951.17;;;873.40;;
17197;SDS011;8715;51.010;6.812;2023-04-21T10:16:11;949.20;;;871.40;;
17197;SDS011;8715;51.010;6.812;2023-04-21T10:18:36;951.70;;;873.43;;
17197;SDS011;8715;51.010;6.812;2023-04-21T10:23:37;957.43;;;878.20;;
17197;SDS011;8715;51.010;6.812;2023-04-21T10:26:04;950.92;;;872.50;;
17197;SDS011;8715;51.010;6.812;2023-04-21T10:31:18;960.20;;;879.53;;
17197;SDS011;8715;51.010;6.812;2023-04-21T10:36:27;961.70;;;880.97;;
17197;SDS011;8715;51.010;6.812;2023-04-21T10:38:54;970.60;;;889.50;;
17197;SDS011;8715;51.010;6.812;2023-04-21T10:41:28;964.28;;;883.00;;
17197;SDS011;8715;51.010;6.812;2023-04-21T10:43:56;960.70;;;879.95;;
17197;SDS011;8715;51.010;6.812;2023-04-21T10:49:03;953.30;;;874.25;;
17197;SDS011;8715;51.010;6.812;2023-04-21T10:51:29;953.45;;;874.88;;
17197;SDS011;8715;51.010;6.812;2023-04-21T10:53:54;959.97;;;881.13;;
17197;SDS011;8715;51.010;6.812;2023-04-21T10:56:20;949.67;;;872.28;;
17197;SDS011;8715;51.010;6.812;2023-04-21T10:58:45;951.08;;;873.83;;
17197;SDS011;8715;51.010;6.812;2023-04-21T11:01:11;947.97;;;871.00;;
17197;SDS011;8715;51.010;6.812;2023-04-21T11:03:36;946.73;;;869.77;;
17197;SDS011;8715;51.010;6.812;2023-04-21T11:06:12;951.50;;;874.07;;
17197;SDS011;8715;51.010;6.812;2023-04-21T11:08:53;961.15;;;883.60;;
17197;SDS011;8715;51.010;6.812;2023-04-21T11:11:22;949.70;;;872.63;;
17197;SDS011;8715;51.010;6.812;2023-04-21T11:13:51;952.25;;;874.67;;
17197;SDS011;8715;51.010;6.812;2023-04-21T11:16:16;958.10;;;880.13;;
17197;SDS011;8715;51.010;6.812;2023-04-21T11:18:42;950.83;;;872.93;;
17197;SDS011;8715;51.010;6.812;2023-04-21T11:21:11;959.17;;;879.90;;
17197;SDS011;8715;51.010;6.812;2023-04-21T11:23:40;962.63;;;884.03;;
17197;SDS011;8715;51.010;6.812;2023-04-21T11:26:06;963.22;;;883.67;;
17197;SDS011;8715;51.010;6.812;2023-04-21T11:28:31;954.90;;;875.07;;
17197;SDS011;8715;51.010;6.812;2023-04-21T11:30:57;963.17;;;881.63;;
17197;SDS011;8715;51.010;6.812;2023-04-21T11:33:22;965.30;;;883.35;;
17197;SDS011;8715;51.010;6.812;2023-04-21T11:35:48;965.20;;;883.17;;
17197;SDS011;8715;51.010;6.812;2023-04-21T11:38:15;966.47;;;884.00;;
17197;SDS011;8715;51.010;6.812;2023-04-21T11:40:46;973.72;;;891.50;;
17197;SDS011;8715;51.010;6.812;2023-04-21T11:43:11;973.40;;;891.38;;
17197;SDS011;8715;51.010;6.812;2023-04-21T11:45:36;970.53;;;889.03;;
17197;SDS011;8715;51.010;6.812;2023-04-21T11:48:14;970.70;;;888.90;;
17197;SDS011;8715;51.010;6.812;2023-04-21T11:50:40;979.53;;;896.47;;
17197;SDS011;8715;51.010;6.812;2023-04-21T11:53:10;977.78;;;894.58;;
17197;SDS011;8715;51.010;6.812;2023-04-21T11:55:35;970.27;;;888.53;;
17197;SDS011;8715;51.010;6.812;2023-04-21T11:58:01;976.33;;;894.22;;
17197;SDS011;8715;51.010;6.812;2023-04-21T12:00:28;971.78;;;888.95;;
17197;SDS011;8715;51.010;6.812;2023-04-21T12:02:54;959.38;;;878.15;;
17197;SDS011;8715;51.010;6.812;2023-04-21T12:05:20;971.50;;;890.60;;
17197;SDS011;8715;51.010;6.812;2023-04-21T12:07:45;971.17;;;890.13;;
17197;SDS011;8715;51.010;6.812;2023-04-21T12:10:16;968.97;;;888.78;;
17197;SDS011;8715;51.010;6.812;2023-04-21T12:12:42;968.03;;;887.53;;
17197;SDS011;8715;51.010;6.812;2023-04-21T12:15:08;964.10;;;882.90;;
17197;SDS011;8715;51.010;6.812;2023-04-21T12:17:53;968.15;;;887.50;;
17197;SDS011;8715;51.010;6.812;2023-04-21T12:20:19;969.05;;;888.08;;
17197;SDS011;8715;51.010;6.812;2023-04-21T12:22:44;962.40;;;881.20;;
17197;SDS011;8715;51.010;6.812;2023-04-21T12:25:10;965.83;;;883.80;;
17197;SDS011;8715;51.010;6.812;2023-04-21T12:27:35;973.30;;;891.50;;
17197;SDS011;8715;51.010;6.812;2023-04-21T12:30:00;969.53;;;888.27;;
17197;SDS011;8715;51.010;6.812;2023-04-21T12:32:27;963.88;;;881.97;;
17197;SDS011;8715;51.010;6.812;2023-04-21T12:34:52;974.47;;;892.00;;
17197;SDS011;8715;51.010;6.812;2023-04-21T12:37:17;978.90;;;895.17;;
17197;SDS011;8715;51.010;6.812;2023-04-21T12:39:42;976.67;;;893.00;;
17197;SDS011;8715;51.010;6.812;2023-04-21T12:42:08;979.27;;;894.77;;
17197;SDS011;8715;51.010;6.812;2023-04-21T12:44:33;974.93;;;891.63;;
17197;SDS011;8715;51.010;6.812;2023-04-21T12:46:58;979.17;;;894.53;;
17197;SDS011;8715;51.010;6.812;2023-04-21T12:49:24;979.37;;;895.47;;
17197;SDS011;8715;51.010;6.812;2023-04-21T12:51:49;980.70;;;896.27;;
17197;SDS011;8715;51.010;6.812;2023-04-21T12:54:14;981.37;;;897.10;;
17197;SDS011;8715;51.010;6.812;2023-04-21T12:56:40;975.27;;;890.37;;
17197;SDS011;8715;51.010;6.812;2023-04-21T12:59:06;979.67;;;895.30;;
17197;SDS011;8715;51.010;6.812;2023-04-21T13:01:31;982.38;;;897.83;;
17197;SDS011;8715;51.010;6.812;2023-04-21T13:03:57;977.63;;;893.80;;
17197;SDS011;8715;51.010;6.812;2023-04-21T13:06:22;981.57;;;897.57;;
17197;SDS011;8715;51.010;6.812;2023-04-21T13:08:47;976.27;;;893.30;;
17197;SDS011;8715;51.010;6.812;2023-04-21T13:11:12;976.07;;;892.83;;
17197;SDS011;8715;51.010;6.812;2023-04-21T13:13:38;973.63;;;890.93;;
17197;SDS011;8715;51.010;6.812;2023-04-21T13:16:03;976.20;;;892.95;;
17197;SDS011;8715;51.010;6.812;2023-04-21T13:18:29;976.45;;;893.40;;
17197;SDS011;8715;51.010;6.812;2023-04-21T13:20:54;978.40;;;894.43;;
17197;SDS011;8715;51.010;6.812;2023-04-21T13:23:19;979.20;;;895.17;;
17197;SDS011;8715;51.010;6.812;2023-04-21T13:25:44;973.93;;;891.30;;
17197;SDS011;8715;51.010;6.812;2023-04-21T13:28:10;977.67;;;895.10;;
17197;SDS011;8715;51.010;6.812;2023-04-21T13:30:37;968.60;;;885.25;;
17197;SDS011;8715;51.010;6.812;2023-04-21T13:33:02;971.60;;;887.27;;
17197;SDS011;8715;51.010;6.812;2023-04-21T13:35:28;970.23;;;885.83;;
17197;SDS011;8715;51.010;6.812;2023-04-21T13:37:53;968.57;;;884.00;;
17197;SDS011;8715;51.010;6.812;2023-04-21T13:40:19;982.00;;;896.88;;
17197;SDS011;8715;51.010;6.812;2023-04-21T13:42:44;982.08;;;896.63;;
17197;SDS011;8715;51.010;6.812;2023-04-21T13:45:10;976.85;;;891.17;;
17197;SDS011;8715;51.010;6.812;2023-04-21T13:47:35;981.83;;;896.75;;
17197;SDS011;8715;51.010;6.812;2023-04-21T13:50:01;980.43;;;894.87;;
17197;SDS011;8715;51.010;6.812;2023-04-21T13:52:26;981.50;;;896.35;;
17197;SDS011;8715;51.010;6.812;2023-04-21T13:54:52;983.47;;;898.47;;
17197;SDS011;8715;51.010;6.812;2023-04-21T13:57:17;985.92;;;900.45;;
17197;SDS011;8715;51.010;6.812;2023-04-21T13:59:42;979.57;;;896.10;;
17197;SDS011;8715;51.010;6.812;2023-04-21T14:02:07;975.77;;;892.70;;
17197;SDS011;8715;51.010;6.812;2023-04-21T14:04:33;976.33;;;893.03;;
17197;SDS011;8715;51.010;6.812;2023-04-21T14:06:58;969.57;;;886.47;;
17197;SDS011;8715;51.010;6.812;2023-04-21T14:09:23;975.27;;;892.53;;
17197;SDS011;8715;51.010;6.812;2023-04-21T14:11:51;974.72;;;891.85;;
17197;SDS011;8715;51.010;6.812;2023-04-21T14:14:16;975.77;;;892.33;;